createdAt,value
2019-04-25T00:01:33.998Z,7.40
2019-04-25T00:11:40.391Z,7.07
2019-04-25T00:21:53.465Z,6.43
2019-04-25T00:31:58.989Z,6.73
2019-04-25T00:42:04.426Z,8.13
2019-04-25T00:52:11.191Z,6.77
2019-04-25T01:02:22.341Z,7.43
2019-04-25T01:12:27.631Z,7.53
2019-04-25T01:22:34.351Z,7.57
2019-04-25T01:32:39.974Z,6.97
2019-04-25T01:43:06.995Z,9.00
2019-04-25T01:53:14.550Z,6.33
2019-04-25T02:03:20.358Z,7.70
2019-04-25T02:13:27.149Z,7.57
2019-04-25T02:23:34.053Z,7.80
2019-04-25T02:33:39.512Z,8.07
2019-04-25T02:43:45.372Z,7.57
2019-04-25T02:53:53.653Z,8.40
2019-04-25T03:03:59.370Z,8.10
2019-04-25T03:14:08.216Z,8.10
2019-04-25T03:24:16.439Z,8.23
2019-04-25T03:34:20.959Z,7.63
2019-04-25T03:44:26.564Z,7.70
2019-04-25T03:54:33.281Z,8.47
2019-04-25T04:04:38.780Z,8.47
2019-04-25T04:14:44.118Z,8.10
2019-04-25T04:24:53.801Z,8.00
2019-04-25T04:34:59.226Z,7.70
2019-04-25T04:45:04.934Z,8.87
2019-04-25T04:55:11.604Z,9.63
2019-04-25T05:05:30.489Z,9.40
2019-04-25T05:15:35.242Z,8.47
2019-04-25T05:25:40.814Z,7.83
2019-04-25T05:35:46.139Z,7.73
2019-04-25T05:45:51.757Z,8.10
2019-04-25T05:55:57.205Z,8.27
2019-04-25T06:06:03.390Z,7.57
2019-04-25T06:16:30.936Z,8.70
2019-04-25T06:26:43.369Z,8.20
2019-04-25T06:36:48.746Z,7.60
2019-04-25T06:47:16.841Z,7.93
2019-04-25T06:57:24.162Z,8.33
2019-04-25T07:07:29.330Z,7.83
2019-04-25T07:17:35.037Z,7.63
2019-04-25T07:28:03.403Z,8.07
2019-04-25T07:38:09.068Z,7.77
2019-04-25T07:48:14.525Z,8.00
2019-04-25T07:58:20.094Z,7.17
2019-04-25T08:08:25.467Z,6.50
2019-04-25T08:18:31.180Z,6.90
2019-04-25T08:28:48.857Z,6.47
2019-04-25T08:38:44.763Z,7.00
2019-04-25T08:49:21.334Z,6.83
2019-04-25T08:59:49.581Z,7.00
2019-04-25T09:09:51.547Z,6.33
2019-04-25T09:19:57.309Z,7.07
2019-04-25T09:30:03.933Z,6.27
2019-04-25T09:40:14.300Z,6.23
2019-04-25T09:50:35.147Z,6.23
2019-04-25T10:00:44.577Z,5.83
2019-04-25T10:10:50.501Z,5.43
2019-04-25T10:20:56.424Z,5.50
2019-04-25T10:31:03.413Z,5.47
2019-04-25T10:41:11.254Z,6.53
2019-04-25T10:51:17.153Z,5.50
2019-04-25T11:01:24.405Z,5.87
2019-04-25T11:11:32.015Z,5.93
2019-04-25T11:21:38.623Z,6.03
2019-04-25T11:31:48.946Z,6.63
2019-04-25T11:41:55.556Z,5.70
2019-04-25T11:52:03.100Z,6.47
2019-04-25T12:02:13.286Z,5.63
2019-04-25T12:12:18.748Z,5.97
2019-04-25T12:22:24.433Z,6.30
2019-04-25T12:32:30.022Z,6.30
2019-04-25T12:42:36.211Z,6.67
2019-04-25T12:52:43.301Z,6.53
2019-04-25T13:02:48.872Z,6.57
2019-04-25T13:12:55.501Z,8.47
2019-04-25T13:23:03.175Z,7.73
2019-04-25T13:33:17.493Z,7.33
2019-04-25T13:43:23.004Z,7.83
2019-04-25T13:53:29.436Z,6.30
2019-04-25T14:03:36.624Z,6.90
2019-04-25T14:13:42.226Z,6.73
2019-04-25T14:23:47.835Z,6.47
2019-04-25T14:33:53.400Z,6.00
2019-04-25T14:43:58.992Z,6.80
2019-04-25T14:54:06.360Z,6.57
2019-04-25T15:04:20.827Z,7.00
2019-04-25T15:14:26.923Z,6.63
2019-04-25T15:24:32.798Z,7.50
2019-04-25T15:34:45.241Z,6.00
2019-04-25T15:45:21.897Z,6.37
2019-04-25T15:55:27.639Z,6.50
2019-04-25T16:05:33.444Z,5.83
2019-04-25T16:15:41.300Z,6.00
2019-04-25T16:25:46.747Z,6.53
2019-04-25T16:35:52.239Z,7.23
2019-04-25T16:45:57.982Z,8.17
2019-04-25T16:56:05.279Z,6.53
2019-04-25T17:06:11.047Z,7.23
2019-04-25T17:16:41.175Z,7.53
2019-04-25T17:26:47.111Z,6.43
2019-04-25T17:37:12.688Z,6.90
2019-04-25T17:47:18.061Z,6.93
2019-04-25T17:57:23.516Z,6.37
2019-04-25T18:07:30.081Z,6.60
2019-04-25T18:17:35.659Z,7.50
2019-04-25T18:27:51.174Z,7.97
2019-04-25T18:38:15.642Z,7.87
2019-04-25T18:48:20.980Z,8.20
2019-04-25T18:58:43.946Z,8.53
2019-04-25T19:08:53.205Z,9.37
2019-04-25T19:18:58.047Z,9.37
2019-04-25T19:29:03.556Z,10.17
2019-04-25T19:39:09.531Z,9.97
2019-04-25T19:49:16.554Z,10.93
2019-04-25T19:59:22.914Z,10.50
2019-04-25T20:09:57.202Z,10.97
2019-04-25T20:20:02.604Z,11.40
2019-04-25T20:30:08.595Z,10.70
2019-04-25T20:40:14.499Z,12.33
2019-04-25T20:50:19.929Z,12.13
2019-04-25T21:00:47.095Z,13.03
2019-04-25T21:10:54.553Z,13.43
2019-04-25T21:21:01.233Z,14.50
2019-04-25T21:31:06.959Z,13.90
2019-04-25T21:41:29.807Z,12.63
2019-04-25T21:51:35.364Z,11.93
2019-04-25T22:01:41.481Z,10.77
2019-04-25T22:11:47.035Z,11.73
2019-04-25T22:21:52.830Z,11.23
2019-04-25T22:32:06.585Z,10.50
2019-04-25T22:42:15.033Z,11.70
2019-04-25T22:52:24.063Z,12.03
2019-04-25T23:02:38.437Z,11.43
2019-04-25T23:12:43.777Z,11.20
2019-04-25T23:22:49.237Z,11.50
2019-04-25T23:32:54.685Z,11.33
2019-04-25T23:42:59.995Z,11.40
2019-04-25T23:53:05.327Z,11.30
